Paddy — WDF2429 — position and weather

sailwx.info

Track history (hours):
 
Tides and Currents Weather Stations Pressure Air Temp Water Temp Dewpoint Dewpoint Depression Visibility Wind Speed Wind Dir Waves Ship Positions

Paddy

Owner: Enterprise Marine Services, LLC, San Antonio, TX. More information available from US FCC via Universal Licensing System and Coast Guard Vessel Documentation Center.

Last reported at 2017-Sep-21 03:25 UTC. Time now 2017-Sep-21 07:14 UTC.
Position N 29°29' W 094°52'.

Length 21 m; draft 3 m.

Type: . MMSI: 367003770.

Date/timePositionNaut miles runAvg speedWind from/ knotsBaromVisibWave heightAir tempDewpointWater temp
2017-Sep-21 03:25N 29°29' W 094°52'2 5.7
2017-Sep-21 03:00N 29°31' W 094°53'3 5.6
2017-Sep-21 02:30N 29°33' W 094°55'3 5.5
2017-Sep-21 02:00N 29°36' W 094°57'3 5.5
2017-Sep-21 01:30N 29°38' W 094°58'3 5.7
2017-Sep-21 01:00N 29°41' W 094°59'2 3.1
2017-Sep-21 00:30N 29°41' W 094°57'1 2.6
2017-Sep-21 00:00N 29°40' W 094°56'0 0.0
2017-Sep-20 21:50N 29°40' W 094°56'0 0.0
2017-Sep-20 21:27N 29°40' W 094°56'0 0.0
2017-Sep-20 20:42N 29°40' W 094°56'0 0.0
2017-Sep-20 20:28N 29°40' W 094°56'0 0.0
2017-Sep-20 19:58N 29°40' W 094°56'0 0.0
2017-Sep-20 19:30N 29°40' W 094°56'0 0.0
2017-Sep-20 19:00N 29°40' W 094°56'0 0.0
2017-Sep-20 18:30N 29°40' W 094°56'0 0.0
2017-Sep-20 10:41N 29°40' W 094°56'0 0.0
2017-Sep-20 10:26N 29°40' W 094°56'0 0.0
2017-Sep-20 09:50N 29°40' W 094°56'0 0.0
2017-Sep-20 09:28N 29°40' W 094°56'0 0.0
2017-Sep-20 09:00N 29°40' W 094°56'0 0.0
2017-Sep-20 08:26N 29°40' W 094°56'0 0.0
2017-Sep-20 07:48N 29°40' W 094°56'0 0.0
2017-Sep-20 06:55N 29°40' W 094°56'0 0.1
2017-Sep-20 06:30N 29°40' W 094°56'2 3.3
2017-Sep-20 06:00N 29°41' W 094°58'3 5.4
2017-Sep-20 05:28N 29°42' W 095°01'4 0.5
2017-Sep-19 20:33N 29°45' W 095°04'0 7.4
2017-Sep-19 20:30N 29°45' W 095°04'3 6.4
2017-Sep-19 20:00N 29°43' W 095°01'3 6.3
2017-Sep-19 19:30N 29°40' W 094°59'4 7.5
2017-Sep-19 19:00N 29°37' W 094°57'4 7.8
2017-Sep-19 18:30N 29°34' W 094°55'68 2.2
2017-Sep-18 11:53N 30°03' W 093°44'2 5.2
2017-Sep-18 11:30N 30°03' W 093°42'3 5.2
2017-Sep-18 11:00N 30°04' W 093°39'2 5.0
2017-Sep-18 10:30N 30°04' W 093°36'2 4.9
2017-Sep-18 10:00N 30°04' W 093°33'2 4.9
2017-Sep-18 09:31N 30°04' W 093°30'2 4.9
2017-Sep-18 09:00N 30°04' W 093°28'2 4.9
2017-Sep-18 08:30N 30°04' W 093°25'2 4.6
2017-Sep-18 08:00N 30°04' W 093°22'1 2.8
2017-Sep-18 07:30N 30°04' W 093°21'1 2.9
2017-Sep-18 07:00N 30°05' W 093°20'1 2.0
2017-Sep-18 06:31N 30°06' W 093°19'0 0.0
2017-Sep-18 06:00N 30°06' W 093°19'0 0.0
2017-Sep-18 05:30N 30°06' W 093°19'0 0.1
2017-Sep-18 05:00N 30°06' W 093°19'1 2.4
2017-Sep-18 04:30N 30°07' W 093°20'3 5.9
2017-Sep-18 04:00N 30°10' W 093°19'3 6.1
2017-Sep-18 03:30N 30°12' W 093°17'2 4.9
2017-Sep-18 03:00N 30°13' W 093°15'2 4.2
2017-Sep-18 02:30N 30°15' W 093°15'2 3.1
2017-Sep-18 02:00N 30°15' W 093°13'1 2.8
2017-Sep-18 01:30N 30°16' W 093°12'1 2.6
2017-Sep-18 01:00N 30°18' W 093°11'1 2.1
2017-Sep-18 00:24N 30°17' W 093°10'1 2.5
2017-Sep-18 00:00N 30°18' W 093°10'1 1.6
2017-Sep-17 23:26N 30°18' W 093°09'0 0.3
2017-Sep-17 22:26N 30°18' W 093°09'1 2.7
2017-Sep-17 22:00N 30°17' W 093°10'1 3.0
2017-Sep-17 21:30N 30°17' W 093°12'2 3.3
2017-Sep-17 20:57N 30°15' W 093°13'0 0.1
2017-Sep-17 20:31N 30°15' W 093°13'1 2.1
2017-Sep-17 20:00N 30°16' W 093°12'2 3.8
2017-Sep-17 19:30N 30°18' W 093°11'2 2.2
2017-Sep-17 18:39N 30°18' W 093°09'0 0.0
2017-Sep-16 23:21N 30°18' W 093°09'1 1.7
2017-Sep-16 22:55N 30°19' W 093°10'1 2.8
2017-Sep-16 22:30N 30°17' W 093°10'1 2.7
2017-Sep-16 22:00N 30°18' W 093°11'2 3.4
2017-Sep-16 21:30N 30°16' W 093°12'1 2.2
2017-Sep-16 21:00N 30°15' W 093°13'2 4.5
2017-Sep-16 20:30N 30°17' W 093°11'1 2.1
2017-Sep-16 19:49N 30°18' W 093°10'1 2.3
2017-Sep-16 19:25N 30°18' W 093°09'0 0.2
2017-Sep-16 17:35N 30°18' W 093°09'1 1.7
2017-Sep-16 17:10N 30°19' W 093°10'1 2.3
2017-Sep-16 16:46N 30°18' W 093°10'1 2.0
2017-Sep-16 16:20N 30°18' W 093°11'0 1.4
2017-Sep-16 16:00N 30°18' W 093°11'1 2.4
2017-Sep-16 15:31N 30°17' W 093°12'1 1.8
2017-Sep-16 15:00N 30°16' W 093°12'1 1.2
2017-Sep-16 14:30N 30°15' W 093°13'0 0.1
2017-Sep-16 14:01N 30°15' W 093°13'0 0.3
2017-Sep-16 13:30N 30°15' W 093°13'0 0.9
2017-Sep-16 13:00N 30°15' W 093°13'1 2.5
2017-Sep-16 12:30N 30°15' W 093°15'2 3.2
2017-Sep-16 12:00N 30°13' W 093°14'1 2.1
2017-Sep-16 11:30N 30°13' W 093°16'1 3.0
2017-Sep-16 11:01N 30°12' W 093°17'3 5.1
2017-Sep-16 10:31N 30°10' W 093°19'3 5.2
2017-Sep-16 10:00N 30°08' W 093°20'3 5.4
2017-Sep-16 09:31N 30°05' W 093°20'2 3.8
2017-Sep-16 09:00N 30°04' W 093°21'2 4.3
2017-Sep-16 08:30N 30°04' W 093°24'3 5.3
2017-Sep-16 08:00N 30°04' W 093°27'3 5.4
2017-Sep-16 07:30N 30°04' W 093°30'3 5.4
2017-Sep-16 07:00N 30°04' W 093°33'3 5.4
2017-Sep-16 06:26N 30°04' W 093°37'74 3.9
2017-Sep-15 11:30N 29°30' W 094°52'2 4.8
2017-Sep-15 11:00N 29°32' W 094°54'2 4.8
2017-Sep-15 10:30N 29°34' W 094°55'2 4.9
2017-Sep-15 10:00N 29°36' W 094°57'3 5.5
2017-Sep-15 09:30N 29°38' W 094°58'3 5.6
2017-Sep-15 08:59N 29°41' W 094°59'2 4.9
2017-Sep-15 08:30N 29°42' W 095°01'2 4.3
2017-Sep-15 08:00N 29°44' W 095°03'3 4.5
2017-Sep-15 07:23N 29°46' W 095°05'0 0.1
2017-Sep-15 06:03N 29°46' W 095°05'1 0.6
2017-Sep-15 03:45N 29°45' W 095°06'1 0.9
2017-Sep-15 02:43N 29°46' W 095°05'1 0.0
2017-Sep-13 20:57N 29°45' W 095°06'1 0.2
2017-Sep-13 17:08N 29°46' W 095°05'1 4.4
2017-Sep-13 16:54N 29°45' W 095°04'2 5.2
2017-Sep-13 16:30N 29°44' W 095°02'3 4.6
2017-Sep-13 15:58N 29°42' W 095°00'2 5.1
2017-Sep-13 15:30N 29°40' W 094°59'3 5.8
2017-Sep-13 15:00N 29°37' W 094°58'3 6.0
2017-Sep-13 14:31N 29°35' W 094°56'2 4.5
2017-Sep-13 14:00N 29°33' W 094°54'3 5.9
2017-Sep-13 13:29N 29°30' W 094°52'  
Track history (hours):
 
Tides and Currents Weather Stations Pressure Air Temp Water Temp Dewpoint Dewpoint Depression Visibility Wind Speed Wind Dir Waves Ship Positions

Paddy

Owner: Enterprise Marine Services, LLC, San Antonio, TX. More information available from US FCC via Universal Licensing System and Coast Guard Vessel Documentation Center.

Last reported at 2017-Sep-21 03:25 UTC. Time now 2017-Sep-21 07:14 UTC.
Position N 29°29' W 094°52'.

Length 21 m; draft 3 m.

Type: . MMSI: 367003770.

Date/timePositionNaut miles runAvg speedWind from/ knotsBaromVisibWave heightAir tempDewpointWater temp
2017-Sep-21 03:25N 29°29' W 094°52'2 5.7
2017-Sep-21 03:00N 29°31' W 094°53'3 5.6
2017-Sep-21 02:30N 29°33' W 094°55'3 5.5
2017-Sep-21 02:00N 29°36' W 094°57'3 5.5
2017-Sep-21 01:30N 29°38' W 094°58'3 5.7
2017-Sep-21 01:00N 29°41' W 094°59'2 3.1
2017-Sep-21 00:30N 29°41' W 094°57'1 2.6
2017-Sep-21 00:00N 29°40' W 094°56'0 0.0
2017-Sep-20 21:50N 29°40' W 094°56'0 0.0
2017-Sep-20 21:27N 29°40' W 094°56'0 0.0
2017-Sep-20 20:42N 29°40' W 094°56'0 0.0
2017-Sep-20 20:28N 29°40' W 094°56'0 0.0
2017-Sep-20 19:58N 29°40' W 094°56'0 0.0
2017-Sep-20 19:30N 29°40' W 094°56'0 0.0
2017-Sep-20 19:00N 29°40' W 094°56'0 0.0
2017-Sep-20 18:30N 29°40' W 094°56'0 0.0
2017-Sep-20 10:41N 29°40' W 094°56'0 0.0
2017-Sep-20 10:26N 29°40' W 094°56'0 0.0
2017-Sep-20 09:50N 29°40' W 094°56'0 0.0
2017-Sep-20 09:28N 29°40' W 094°56'0 0.0
2017-Sep-20 09:00N 29°40' W 094°56'0 0.0
2017-Sep-20 08:26N 29°40' W 094°56'0 0.0
2017-Sep-20 07:48N 29°40' W 094°56'0 0.0
2017-Sep-20 06:55N 29°40' W 094°56'0 0.1
2017-Sep-20 06:30N 29°40' W 094°56'2 3.3
2017-Sep-20 06:00N 29°41' W 094°58'3 5.4
2017-Sep-20 05:28N 29°42' W 095°01'4 0.5
2017-Sep-19 20:33N 29°45' W 095°04'0 7.4
2017-Sep-19 20:30N 29°45' W 095°04'3 6.4
2017-Sep-19 20:00N 29°43' W 095°01'3 6.3
2017-Sep-19 19:30N 29°40' W 094°59'4 7.5
2017-Sep-19 19:00N 29°37' W 094°57'4 7.8
2017-Sep-19 18:30N 29°34' W 094°55'68 2.2
2017-Sep-18 11:53N 30°03' W 093°44'2 5.2
2017-Sep-18 11:30N 30°03' W 093°42'3 5.2
2017-Sep-18 11:00N 30°04' W 093°39'2 5.0
2017-Sep-18 10:30N 30°04' W 093°36'2 4.9
2017-Sep-18 10:00N 30°04' W 093°33'2 4.9
2017-Sep-18 09:31N 30°04' W 093°30'2 4.9
2017-Sep-18 09:00N 30°04' W 093°28'2 4.9
2017-Sep-18 08:30N 30°04' W 093°25'2 4.6
2017-Sep-18 08:00N 30°04' W 093°22'1 2.8
2017-Sep-18 07:30N 30°04' W 093°21'1 2.9
2017-Sep-18 07:00N 30°05' W 093°20'1 2.0
2017-Sep-18 06:31N 30°06' W 093°19'0 0.0
2017-Sep-18 06:00N 30°06' W 093°19'0 0.0
2017-Sep-18 05:30N 30°06' W 093°19'0 0.1
2017-Sep-18 05:00N 30°06' W 093°19'1 2.4
2017-Sep-18 04:30N 30°07' W 093°20'3 5.9
2017-Sep-18 04:00N 30°10' W 093°19'3 6.1
2017-Sep-18 03:30N 30°12' W 093°17'2 4.9
2017-Sep-18 03:00N 30°13' W 093°15'2 4.2
2017-Sep-18 02:30N 30°15' W 093°15'2 3.1
2017-Sep-18 02:00N 30°15' W 093°13'1 2.8
2017-Sep-18 01:30N 30°16' W 093°12'1 2.6
2017-Sep-18 01:00N 30°18' W 093°11'1 2.1
2017-Sep-18 00:24N 30°17' W 093°10'1 2.5
2017-Sep-18 00:00N 30°18' W 093°10'1 1.6
2017-Sep-17 23:26N 30°18' W 093°09'0 0.3
2017-Sep-17 22:26N 30°18' W 093°09'1 2.7
2017-Sep-17 22:00N 30°17' W 093°10'1 3.0
2017-Sep-17 21:30N 30°17' W 093°12'2 3.3
2017-Sep-17 20:57N 30°15' W 093°13'0 0.1
2017-Sep-17 20:31N 30°15' W 093°13'1 2.1
2017-Sep-17 20:00N 30°16' W 093°12'2 3.8
2017-Sep-17 19:30N 30°18' W 093°11'2 2.2
2017-Sep-17 18:39N 30°18' W 093°09'0 0.0
2017-Sep-16 23:21N 30°18' W 093°09'1 1.7
2017-Sep-16 22:55N 30°19' W 093°10'1 2.8
2017-Sep-16 22:30N 30°17' W 093°10'1 2.7
2017-Sep-16 22:00N 30°18' W 093°11'2 3.4
2017-Sep-16 21:30N 30°16' W 093°12'1 2.2
2017-Sep-16 21:00N 30°15' W 093°13'2 4.5
2017-Sep-16 20:30N 30°17' W 093°11'1 2.1
2017-Sep-16 19:49N 30°18' W 093°10'1 2.3
2017-Sep-16 19:25N 30°18' W 093°09'0 0.2
2017-Sep-16 17:35N 30°18' W 093°09'1 1.7
2017-Sep-16 17:10N 30°19' W 093°10'1 2.3
2017-Sep-16 16:46N 30°18' W 093°10'1 2.0
2017-Sep-16 16:20N 30°18' W 093°11'0 1.4
2017-Sep-16 16:00N 30°18' W 093°11'1 2.4
2017-Sep-16 15:31N 30°17' W 093°12'1 1.8
2017-Sep-16 15:00N 30°16' W 093°12'1 1.2
2017-Sep-16 14:30N 30°15' W 093°13'0 0.1
2017-Sep-16 14:01N 30°15' W 093°13'0 0.3
2017-Sep-16 13:30N 30°15' W 093°13'0 0.9
2017-Sep-16 13:00N 30°15' W 093°13'1 2.5
2017-Sep-16 12:30N 30°15' W 093°15'2 3.2
2017-Sep-16 12:00N 30°13' W 093°14'1 2.1
2017-Sep-16 11:30N 30°13' W 093°16'1 3.0
2017-Sep-16 11:01N 30°12' W 093°17'3 5.1
2017-Sep-16 10:31N 30°10' W 093°19'3 5.2
2017-Sep-16 10:00N 30°08' W 093°20'3 5.4
2017-Sep-16 09:31N 30°05' W 093°20'2 3.8
2017-Sep-16 09:00N 30°04' W 093°21'2 4.3
2017-Sep-16 08:30N 30°04' W 093°24'3 5.3
2017-Sep-16 08:00N 30°04' W 093°27'3 5.4
2017-Sep-16 07:30N 30°04' W 093°30'3 5.4
2017-Sep-16 07:00N 30°04' W 093°33'3 5.4
2017-Sep-16 06:26N 30°04' W 093°37'74 3.9
2017-Sep-15 11:30N 29°30' W 094°52'2 4.8
2017-Sep-15 11:00N 29°32' W 094°54'2 4.8
2017-Sep-15 10:30N 29°34' W 094°55'2 4.9
2017-Sep-15 10:00N 29°36' W 094°57'3 5.5
2017-Sep-15 09:30N 29°38' W 094°58'3 5.6
2017-Sep-15 08:59N 29°41' W 094°59'2 4.9
2017-Sep-15 08:30N 29°42' W 095°01'2 4.3
2017-Sep-15 08:00N 29°44' W 095°03'3 4.5
2017-Sep-15 07:23N 29°46' W 095°05'0 0.1
2017-Sep-15 06:03N 29°46' W 095°05'1 0.6
2017-Sep-15 03:45N 29°45' W 095°06'1 0.9
2017-Sep-15 02:43N 29°46' W 095°05'1 0.0
2017-Sep-13 20:57N 29°45' W 095°06'1 0.2
2017-Sep-13 17:08N 29°46' W 095°05'1 4.4
2017-Sep-13 16:54N 29°45' W 095°04'2 5.2
2017-Sep-13 16:30N 29°44' W 095°02'3 4.6
2017-Sep-13 15:58N 29°42' W 095°00'2 5.1
2017-Sep-13 15:30N 29°40' W 094°59'3 5.8
2017-Sep-13 15:00N 29°37' W 094°58'3 6.0
2017-Sep-13 14:31N 29°35' W 094°56'2 4.5
2017-Sep-13 14:00N 29°33' W 094°54'3 5.9
2017-Sep-13 13:29N 29°30' W 094°52'  

Dump ship's entire track history